createdAt,value
2022-12-15T00:02:35.875Z,-14.03
2022-12-15T00:05:23.103Z,-14.21
2022-12-15T00:08:08.461Z,-14.30
2022-12-15T00:10:54.396Z,-14.42
2022-12-15T00:13:40.466Z,-14.61
2022-12-15T00:16:26.860Z,-14.67
2022-12-15T00:19:12.617Z,-14.70
2022-12-15T00:21:59.464Z,-14.82
2022-12-15T00:24:44.840Z,-14.86
2022-12-15T00:27:35.550Z,-15.18
2022-12-15T00:30:20.830Z,-15.13
2022-12-15T00:33:06.087Z,-15.14
2022-12-15T00:35:51.567Z,-15.09
2022-12-15T00:38:38.507Z,-15.14
2022-12-15T00:41:06.742Z,-15.22
2022-12-15T00:43:36.545Z,-15.28
2022-12-15T00:46:22.382Z,-15.40
2022-12-15T00:48:50.755Z,-15.37
2022-12-15T00:51:20.083Z,-15.39
2022-12-15T00:54:06.765Z,-15.39
2022-12-15T00:56:52.104Z,-15.37
2022-12-15T00:59:37.528Z,-15.37
2022-12-15T01:02:23.040Z,-15.37
2022-12-15T01:05:08.430Z,-15.35
2022-12-15T01:07:53.958Z,-15.36
2022-12-15T01:10:41.099Z,-15.36
2022-12-15T01:13:31.647Z,-15.52
2022-12-15T01:16:17.993Z,-15.60
2022-12-15T01:19:03.489Z,-15.63
2022-12-15T01:21:32.739Z,-15.70
2022-12-15T01:24:00.676Z,-15.81
2022-12-15T01:26:32.145Z,-15.93
2022-12-15T01:29:01.512Z,-15.88
2022-12-15T01:31:29.407Z,-15.87
2022-12-15T01:33:57.453Z,-15.92
2022-12-15T01:36:25.506Z,-15.97
2022-12-15T01:38:54.472Z,-16.04
2022-12-15T01:41:22.451Z,-16.19
2022-12-15T01:43:51.817Z,-16.05
2022-12-15T01:46:22.284Z,-16.15
2022-12-15T01:48:53.626Z,-16.20
2022-12-15T01:51:26.909Z,-16.08
2022-12-15T01:54:02.509Z,-16.08
2022-12-15T01:56:37.613Z,-16.00
2022-12-15T01:59:10.833Z,-16.01
2022-12-15T02:01:40.371Z,-16.05
2022-12-15T02:04:09.696Z,-16.07
2022-12-15T02:06:37.937Z,-16.09
2022-12-15T02:09:06.297Z,-16.11
2022-12-15T02:11:46.970Z,-16.33
2022-12-15T02:14:26.898Z,-16.48
2022-12-15T02:17:08.172Z,-16.57
2022-12-15T02:20:03.589Z,-16.57
2022-12-15T02:22:49.505Z,-16.61
2022-12-15T02:25:31.450Z,-16.57
2022-12-15T02:28:05.286Z,-16.47
2022-12-15T02:31:19.842Z,-16.46
2022-12-15T02:33:55.881Z,-16.34
2022-12-15T02:36:28.930Z,-16.28
2022-12-15T02:38:56.748Z,-16.22
2022-12-15T02:41:36.210Z,-16.12
2022-12-15T02:44:10.183Z,-16.18
2022-12-15T02:46:52.893Z,-16.20
2022-12-15T02:49:28.301Z,-16.22
2022-12-15T02:52:05.746Z,-16.29
2022-12-15T02:55:02.472Z,-16.26
2022-12-15T02:57:40.021Z,-16.26
2022-12-15T03:00:11.000Z,-16.27
2022-12-15T03:02:47.483Z,-16.31
2022-12-15T03:05:17.321Z,-16.41
2022-12-15T03:07:45.693Z,-16.41
2022-12-15T03:10:18.858Z,-16.40
2022-12-15T03:12:46.549Z,-16.42
2022-12-15T03:15:15.184Z,-16.34
2022-12-15T03:17:45.102Z,-16.39
2022-12-15T03:20:13.196Z,-16.42
2022-12-15T03:22:41.934Z,-16.52
2022-12-15T03:25:10.246Z,-16.53
2022-12-15T03:27:38.713Z,-16.56
2022-12-15T03:30:08.131Z,-16.50
2022-12-15T03:32:36.010Z,-16.48
2022-12-15T03:35:06.383Z,-16.52
2022-12-15T03:37:34.234Z,-16.51
2022-12-15T03:40:02.148Z,-16.45
2022-12-15T03:42:47.611Z,-16.37
2022-12-15T03:45:15.974Z,-16.36
2022-12-15T03:47:44.631Z,-16.30
2022-12-15T03:50:16.427Z,-16.22
2022-12-15T03:52:44.547Z,-16.25
2022-12-15T03:55:13.127Z,-16.26
2022-12-15T03:57:42.169Z,-16.24
2022-12-15T04:00:12.779Z,-16.19
2022-12-15T04:02:40.941Z,-16.18
2022-12-15T04:05:09.743Z,-16.25
2022-12-15T04:07:38.977Z,-16.35
2022-12-15T04:10:07.886Z,-16.45
2022-12-15T04:12:35.618Z,-16.61
2022-12-15T04:15:03.545Z,-16.56
2022-12-15T04:17:31.453Z,-16.62
2022-12-15T04:20:11.889Z,-16.68
2022-12-15T04:22:43.286Z,-16.62
2022-12-15T04:25:31.229Z,-16.55
2022-12-15T04:28:17.329Z,-16.49
2022-12-15T04:31:07.812Z,-16.62
2022-12-15T04:33:54.204Z,-16.70
2022-12-15T04:36:40.812Z,-16.77
2022-12-15T04:39:27.329Z,-16.89
2022-12-15T04:42:16.244Z,-16.89
2022-12-15T04:45:02.123Z,-16.81
2022-12-15T04:47:47.870Z,-16.76
2022-12-15T04:50:33.241Z,-16.73
2022-12-15T04:53:26.284Z,-16.70
2022-12-15T04:56:18.264Z,-16.69
2022-12-15T04:59:04.669Z,-16.82
2022-12-15T05:01:50.144Z,-16.81
2022-12-15T05:04:35.967Z,-16.86
2022-12-15T05:07:21.213Z,-16.95
2022-12-15T05:10:12.742Z,-17.03
2022-12-15T05:13:01.901Z,-16.96
2022-12-15T05:15:47.961Z,-16.88
2022-12-15T05:18:33.185Z,-16.85
2022-12-15T05:21:18.325Z,-16.76
2022-12-15T05:24:03.681Z,-16.66
2022-12-15T05:26:52.622Z,-16.68
2022-12-15T05:29:40.316Z,-16.79
2022-12-15T05:32:08.898Z,-16.96
2022-12-15T05:34:39.497Z,-17.09
2022-12-15T05:37:07.543Z,-17.22
2022-12-15T05:39:36.789Z,-17.22
2022-12-15T05:42:04.804Z,-17.09
2022-12-15T05:44:34.170Z,-17.07
2022-12-15T05:47:02.066Z,-17.07
2022-12-15T05:49:30.110Z,-17.08
2022-12-15T05:51:58.358Z,-16.96
2022-12-15T05:54:26.302Z,-16.86
2022-12-15T05:56:54.387Z,-16.80
2022-12-15T05:59:22.452Z,-16.81
2022-12-15T06:01:51.750Z,-16.85
2022-12-15T06:04:19.758Z,-16.81
2022-12-15T06:06:47.656Z,-16.77
2022-12-15T06:09:15.522Z,-16.79
2022-12-15T06:11:44.797Z,-16.72
2022-12-15T06:14:12.743Z,-16.79
2022-12-15T06:16:50.896Z,-16.84
2022-12-15T06:19:21.250Z,-16.89
2022-12-15T06:21:49.748Z,-16.82
2022-12-15T06:24:20.411Z,-16.75
2022-12-15T06:26:49.857Z,-16.68
2022-12-15T06:29:19.538Z,-16.59
2022-12-15T06:31:47.742Z,-16.72
2022-12-15T06:34:17.552Z,-16.72
2022-12-15T06:36:47.002Z,-16.75
2022-12-15T06:39:16.395Z,-16.77
2022-12-15T06:41:45.341Z,-16.78
2022-12-15T06:44:17.051Z,-16.74
2022-12-15T06:46:46.224Z,-16.76
2022-12-15T06:49:15.904Z,-16.64
2022-12-15T06:51:47.232Z,-16.53
2022-12-15T06:54:19.893Z,-16.43
2022-12-15T06:56:50.071Z,-16.43
2022-12-15T06:59:18.155Z,-16.48
2022-12-15T07:01:46.372Z,-16.44
2022-12-15T07:04:15.772Z,-16.43
2022-12-15T07:06:43.961Z,-16.42
2022-12-15T07:09:16.129Z,-16.51
2022-12-15T07:11:46.451Z,-16.61
2022-12-15T07:14:15.871Z,-16.64
2022-12-15T07:16:43.904Z,-16.64
2022-12-15T07:19:15.994Z,-16.61
2022-12-15T07:21:44.906Z,-16.44
2022-12-15T07:24:13.097Z,-16.40
2022-12-15T07:26:41.190Z,-16.43
2022-12-15T07:29:11.890Z,-16.44
2022-12-15T07:31:41.576Z,-16.54
2022-12-15T07:34:09.493Z,-16.68
2022-12-15T07:36:37.427Z,-16.76
2022-12-15T07:39:06.505Z,-16.84
2022-12-15T07:41:35.433Z,-16.75
2022-12-15T07:44:03.454Z,-16.68
2022-12-15T07:46:32.816Z,-16.63
2022-12-15T07:49:00.842Z,-16.58
2022-12-15T07:51:29.526Z,-16.50
2022-12-15T07:53:57.368Z,-16.46
2022-12-15T07:56:25.236Z,-16.42
2022-12-15T07:58:53.126Z,-16.34
2022-12-15T08:01:21.097Z,-16.26
2022-12-15T08:03:51.090Z,-16.15
2022-12-15T08:06:19.199Z,-16.18
2022-12-15T08:08:50.223Z,-16.21
2022-12-15T08:11:20.514Z,-16.13
2022-12-15T08:14:05.643Z,-16.11
2022-12-15T08:16:36.999Z,-16.11
2022-12-15T08:19:07.680Z,-16.10
2022-12-15T08:21:35.851Z,-16.11
2022-12-15T08:24:04.380Z,-16.12
2022-12-15T08:26:32.703Z,-16.07
2022-12-15T08:29:40.638Z,-16.04
2022-12-15T08:31:52.849Z,-16.01
2022-12-15T08:34:22.314Z,-15.99
2022-12-15T08:36:50.466Z,-16.09
2022-12-15T08:39:18.521Z,-16.19
2022-12-15T08:41:46.401Z,-16.24
2022-12-15T08:44:16.850Z,-16.14
2022-12-15T08:46:44.968Z,-16.06
2022-12-15T08:49:17.917Z,-16.00
2022-12-15T08:51:50.846Z,-16.00
2022-12-15T08:54:20.405Z,-15.97
2022-12-15T08:56:48.793Z,-15.95
2022-12-15T08:59:17.205Z,-16.04
2022-12-15T09:01:45.285Z,-16.17
2022-12-15T09:04:13.342Z,-16.17
2022-12-15T09:06:41.448Z,-16.13
2022-12-15T09:09:13.795Z,-16.16
2022-12-15T09:11:41.932Z,-16.24
2022-12-15T09:14:09.958Z,-16.23
2022-12-15T09:16:38.253Z,-16.22
2022-12-15T09:19:07.264Z,-16.10
2022-12-15T09:21:35.421Z,-15.96
2022-12-15T09:24:04.714Z,-15.87
2022-12-15T09:26:35.571Z,-15.79
2022-12-15T09:29:03.786Z,-15.74
2022-12-15T09:31:33.742Z,-15.70
2022-12-15T09:34:02.228Z,-15.60
2022-12-15T09:36:32.613Z,-15.51
2022-12-15T09:39:03.360Z,-15.48
2022-12-15T09:41:34.804Z,-15.46
2022-12-15T09:44:06.101Z,-15.40
2022-12-15T09:46:58.075Z,-15.40
2022-12-15T09:49:39.970Z,-15.40
2022-12-15T09:52:13.381Z,-15.35
2022-12-15T09:54:42.666Z,-15.32
2022-12-15T09:57:20.751Z,-15.38
2022-12-15T10:00:11.567Z,-15.40
2022-12-15T10:03:14.181Z,-15.48
2022-12-15T10:06:15.551Z,-15.52
2022-12-15T10:08:46.218Z,-15.59
2022-12-15T10:11:23.101Z,-15.60
2022-12-15T10:14:02.173Z,-15.59
2022-12-15T10:16:36.000Z,-15.60
2022-12-15T10:19:09.903Z,-15.70
2022-12-15T10:21:38.271Z,-15.65
2022-12-15T10:24:44.334Z,-15.55
2022-12-15T10:27:29.909Z,-15.36
2022-12-15T10:30:04.433Z,-15.29
2022-12-15T10:32:50.966Z,-15.20
2022-12-15T10:35:22.003Z,-15.16
2022-12-15T10:37:50.132Z,-15.07
2022-12-15T10:40:20.754Z,-15.04
2022-12-15T10:42:51.105Z,-14.98
2022-12-15T10:45:36.745Z,-14.92
2022-12-15T10:48:06.818Z,-14.88
2022-12-15T10:50:35.402Z,-14.81
2022-12-15T10:53:09.491Z,-14.81
2022-12-15T10:55:40.052Z,-14.84
2022-12-15T10:58:18.241Z,-14.78
2022-12-15T11:00:51.085Z,-14.61
2022-12-15T11:03:25.033Z,-14.48
2022-12-15T11:05:54.253Z,-14.37
2022-12-15T11:08:24.047Z,-14.23
2022-12-15T11:11:11.875Z,-14.17
2022-12-15T11:13:41.150Z,-14.17
2022-12-15T11:16:16.934Z,-14.22
2022-12-15T11:18:49.565Z,-14.17
2022-12-15T11:21:23.588Z,-14.08
2022-12-15T11:24:08.867Z,-14.04
2022-12-15T11:26:49.044Z,-13.96
2022-12-15T11:29:28.966Z,-13.91
2022-12-15T11:32:06.778Z,-13.86
2022-12-15T11:34:38.790Z,-13.81
2022-12-15T11:37:44.655Z,-13.74
2022-12-15T11:40:24.735Z,-13.68
2022-12-15T11:43:19.291Z,-13.60
2022-12-15T11:46:00.692Z,-13.54
2022-12-15T11:48:36.910Z,-13.50
2022-12-15T11:51:08.404Z,-13.42
2022-12-15T11:54:10.765Z,-13.36
2022-12-15T11:56:43.836Z,-13.30
2022-12-15T11:59:42.158Z,-13.20
2022-12-15T12:02:42.695Z,-13.08
2022-12-15T12:05:34.768Z,-13.22
2022-12-15T12:08:14.049Z,-13.45
2022-12-15T12:10:56.466Z,-13.65
2022-12-15T12:13:32.487Z,-13.69
2022-12-15T12:16:10.520Z,-13.65
2022-12-15T12:18:43.548Z,-13.66
2022-12-15T12:21:16.633Z,-13.71
2022-12-15T12:23:50.917Z,-13.69
2022-12-15T12:26:26.230Z,-13.60
2022-12-15T12:29:00.364Z,-13.52
2022-12-15T12:31:38.714Z,-13.44
2022-12-15T12:34:13.501Z,-13.36
2022-12-15T12:36:44.845Z,-13.31
2022-12-15T12:39:23.176Z,-13.25
2022-12-15T12:42:00.954Z,-13.20
2022-12-15T12:44:33.450Z,-13.10
2022-12-15T12:47:10.709Z,-13.04
2022-12-15T12:49:44.032Z,-13.00
2022-12-15T12:52:23.198Z,-12.96
2022-12-15T12:55:01.104Z,-12.96
2022-12-15T12:57:36.104Z,-12.90
2022-12-15T13:00:19.692Z,-12.87
2022-12-15T13:02:59.829Z,-12.83
2022-12-15T13:05:34.142Z,-12.79
2022-12-15T13:08:50.835Z,-12.75
2022-12-15T13:12:14.901Z,-12.73
2022-12-15T13:14:51.813Z,-12.71
2022-12-15T13:17:29.123Z,-12.74
2022-12-15T13:20:22.883Z,-12.74
2022-12-15T13:22:52.205Z,-12.70
2022-12-15T13:25:35.731Z,-12.71
2022-12-15T13:28:18.639Z,-12.66
2022-12-15T13:31:34.509Z,-12.61
2022-12-15T13:34:13.862Z,-12.55
2022-12-15T13:36:52.529Z,-12.55
2022-12-15T13:39:58.097Z,-12.56
2022-12-15T13:45:51.096Z,-12.54
2022-12-15T13:48:36.672Z,-12.60
2022-12-15T13:51:14.407Z,-12.80
2022-12-15T13:53:45.801Z,-12.99
2022-12-15T13:56:40.913Z,-13.12
2022-12-15T13:59:15.221Z,-13.21
2022-12-15T14:01:50.913Z,-13.26
2022-12-15T14:04:20.362Z,-13.27
2022-12-15T14:06:50.746Z,-13.38
2022-12-15T14:09:23.454Z,-13.44
2022-12-15T14:11:53.582Z,-13.46
2022-12-15T14:14:27.722Z,-13.56
2022-12-15T14:17:01.801Z,-13.77
2022-12-15T14:19:40.150Z,-13.75
2022-12-15T14:22:30.143Z,-13.85
2022-12-15T14:25:04.474Z,-13.83
2022-12-15T14:27:34.261Z,-13.80
2022-12-15T14:30:22.458Z,-13.83
2022-12-15T14:32:54.526Z,-13.89
2022-12-15T14:35:28.734Z,-13.89
2022-12-15T14:38:03.344Z,-13.90
2022-12-15T14:40:32.059Z,-13.90
2022-12-15T14:43:00.665Z,-13.92
2022-12-15T14:45:33.700Z,-13.94
2022-12-15T14:48:39.495Z,-13.87
2022-12-15T14:50:52.016Z,-13.80
2022-12-15T14:53:22.866Z,-13.81
2022-12-15T14:55:51.477Z,-13.82
2022-12-15T14:58:40.778Z,-13.77
2022-12-15T15:01:23.365Z,-13.80
2022-12-15T15:03:05.500Z,-12.54
2022-12-15T15:03:58.164Z,-13.74
2022-12-15T15:06:32.824Z,-13.67
2022-12-15T15:09:15.739Z,-13.69
2022-12-15T15:11:44.537Z,-13.59
2022-12-15T15:14:15.731Z,-13.53
2022-12-15T15:16:45.608Z,-13.46
2022-12-15T15:19:23.079Z,-13.40
2022-12-15T15:21:50.941Z,-13.32
2022-12-15T15:24:25.761Z,-13.22
2022-12-15T15:26:54.074Z,-13.25
2022-12-15T15:29:42.158Z,-13.24
2022-12-15T15:32:17.702Z,-13.29
2022-12-15T15:34:47.445Z,-13.38
2022-12-15T15:37:19.929Z,-13.30
2022-12-15T15:39:49.026Z,-13.27
2022-12-15T15:42:17.006Z,-13.33
2022-12-15T15:44:45.056Z,-13.35
2022-12-15T15:47:22.785Z,-13.38
2022-12-15T15:49:52.038Z,-13.36
2022-12-15T15:52:19.750Z,-13.32
2022-12-15T15:54:48.945Z,-13.27
2022-12-15T15:57:17.026Z,-13.25
2022-12-15T15:59:45.303Z,-13.22
2022-12-15T16:02:14.506Z,-13.17
2022-12-15T16:04:45.735Z,-13.14
2022-12-15T16:07:21.579Z,-13.14
2022-12-15T16:09:49.798Z,-13.14
2022-12-15T16:12:27.759Z,-13.15
2022-12-15T16:14:55.941Z,-13.16
2022-12-15T16:17:24.131Z,-13.12
2022-12-15T16:19:53.467Z,-13.17
2022-12-15T16:22:22.770Z,-13.30
2022-12-15T16:24:50.436Z,-13.31
2022-12-15T16:27:18.337Z,-13.28
2022-12-15T16:29:46.259Z,-13.27
2022-12-15T16:32:14.104Z,-13.30
2022-12-15T16:34:42.662Z,-13.29
2022-12-15T16:37:26.165Z,-13.37
2022-12-15T16:39:54.122Z,-13.37
2022-12-15T16:42:21.955Z,-13.51
2022-12-15T16:44:49.786Z,-13.55
2022-12-15T16:47:17.648Z,-13.61
2022-12-15T16:49:45.622Z,-13.70
2022-12-15T16:52:20.046Z,-13.71
2022-12-15T16:54:49.619Z,-13.82
2022-12-15T16:57:18.464Z,-13.74
2022-12-15T17:01:59.347Z,-13.60
2022-12-15T17:04:27.254Z,-13.59
2022-12-15T17:06:55.299Z,-13.66
2022-12-15T17:09:29.027Z,-13.71
2022-12-15T17:12:03.704Z,-13.69
2022-12-15T17:14:32.590Z,-13.67
2022-12-15T17:17:01.921Z,-13.63
2022-12-15T17:19:29.998Z,-13.63
2022-12-15T17:22:00.669Z,-13.65
2022-12-15T17:24:28.919Z,-13.65
2022-12-15T17:26:56.913Z,-13.64
2022-12-15T17:29:28.836Z,-13.65
2022-12-15T17:31:56.704Z,-13.65
2022-12-15T17:34:30.170Z,-13.72
2022-12-15T17:36:59.127Z,-13.73
2022-12-15T17:39:27.590Z,-13.74
2022-12-15T17:42:01.119Z,-13.79
2022-12-15T17:44:34.828Z,-13.82
2022-12-15T17:47:03.784Z,-13.83
2022-12-15T17:49:36.148Z,-13.88
2022-12-15T17:52:09.214Z,-13.88
2022-12-15T17:54:37.361Z,-13.89
2022-12-15T17:57:05.265Z,-13.84
2022-12-15T17:59:33.407Z,-13.85
2022-12-15T18:02:01.706Z,-13.92
2022-12-15T18:04:29.896Z,-13.99
2022-12-15T18:07:02.075Z,-14.05
2022-12-15T18:09:31.320Z,-14.22
2022-12-15T18:12:00.490Z,-14.32
2022-12-15T18:14:28.671Z,-14.47
2022-12-15T18:16:56.764Z,-14.49
2022-12-15T18:19:24.793Z,-14.57
2022-12-15T18:21:53.410Z,-14.59
2022-12-15T18:24:22.661Z,-14.70
2022-12-15T18:26:50.508Z,-14.79
2022-12-15T18:29:18.857Z,-14.89
2022-12-15T18:31:49.420Z,-14.85
2022-12-15T18:34:21.241Z,-14.94
2022-12-15T18:36:50.602Z,-15.09
2022-12-15T18:39:20.264Z,-15.20
2022-12-15T18:41:49.845Z,-15.25
2022-12-15T18:44:23.796Z,-15.34
2022-12-15T18:46:51.995Z,-15.43
2022-12-15T18:49:21.012Z,-15.40
2022-12-15T18:51:49.421Z,-15.43
2022-12-15T18:54:20.043Z,-15.46
2022-12-15T18:56:49.597Z,-15.43
2022-12-15T18:59:18.995Z,-15.45
2022-12-15T19:01:48.908Z,-15.49
2022-12-15T19:04:17.039Z,-15.45
2022-12-15T19:08:59.853Z,-15.51
2022-12-15T19:11:31.223Z,-15.45
2022-12-15T19:13:59.974Z,-15.49
2022-12-15T19:16:48.960Z,-15.59
2022-12-15T19:19:33.950Z,-15.82
2022-12-15T19:22:19.294Z,-15.81
2022-12-15T19:24:59.174Z,-15.92
2022-12-15T19:27:27.459Z,-15.93
2022-12-15T19:29:55.735Z,-15.97
2022-12-15T19:32:24.063Z,-16.05
2022-12-15T19:34:51.959Z,-16.15
2022-12-15T19:37:26.301Z,-16.18
2022-12-15T19:39:56.829Z,-16.27
2022-12-15T19:42:30.200Z,-16.23
2022-12-15T19:44:58.237Z,-16.40
2022-12-15T19:47:26.654Z,-16.51
2022-12-15T19:49:55.097Z,-16.41
2022-12-15T19:52:23.032Z,-16.33
2022-12-15T19:54:51.871Z,-16.31
2022-12-15T19:57:21.777Z,-16.33
2022-12-15T19:59:50.025Z,-16.27
2022-12-15T20:02:18.999Z,-16.29
2022-12-15T20:04:47.193Z,-16.23
2022-12-15T20:07:19.068Z,-16.35
2022-12-15T20:09:47.506Z,-16.32
2022-12-15T20:12:17.916Z,-16.46
2022-12-15T20:14:48.654Z,-16.49
2022-12-15T20:17:16.537Z,-16.48
2022-12-15T20:19:44.630Z,-16.64
2022-12-15T20:22:15.768Z,-16.76
2022-12-15T20:24:44.648Z,-16.76
2022-12-15T20:27:13.425Z,-16.87
2022-12-15T20:29:41.287Z,-16.81
2022-12-15T20:32:15.711Z,-16.80
2022-12-15T20:34:43.841Z,-16.80
2022-12-15T20:37:18.921Z,-16.78
2022-12-15T20:39:51.419Z,-16.75
2022-12-15T20:42:23.078Z,-16.78
2022-12-15T20:44:50.977Z,-16.88
2022-12-15T20:47:23.151Z,-16.90
2022-12-15T20:49:52.915Z,-16.99
2022-12-15T20:52:23.748Z,-17.04
2022-12-15T20:54:52.062Z,-17.05
2022-12-15T20:57:19.985Z,-17.11
2022-12-15T20:59:47.876Z,-17.18
2022-12-15T21:02:19.442Z,-17.38
2022-12-15T21:04:48.969Z,-17.42
2022-12-15T21:07:20.969Z,-17.44
2022-12-15T21:09:48.851Z,-17.42
2022-12-15T21:12:19.413Z,-17.54
2022-12-15T21:14:47.684Z,-17.82
2022-12-15T21:17:17.203Z,-17.76
2022-12-15T21:19:46.474Z,-17.69
2022-12-15T21:22:20.373Z,-17.60
2022-12-15T21:24:50.631Z,-17.60
2022-12-15T21:27:18.477Z,-17.72
2022-12-15T21:29:52.043Z,-17.64
2022-12-15T21:32:20.588Z,-17.58
2022-12-15T21:34:49.841Z,-17.45
2022-12-15T21:37:26.596Z,-17.40
2022-12-15T21:39:54.982Z,-17.35
2022-12-15T21:42:23.258Z,-17.33
2022-12-15T21:44:51.158Z,-17.39
2022-12-15T21:47:25.401Z,-17.41
2022-12-15T21:49:52.417Z,-17.51
2022-12-15T21:52:23.373Z,-17.62
2022-12-15T21:54:51.557Z,-17.71
2022-12-15T21:57:19.401Z,-17.76
2022-12-15T21:59:47.489Z,-17.84
2022-12-15T22:02:25.333Z,-18.08
2022-12-15T22:04:53.321Z,-18.22
2022-12-15T22:07:24.433Z,-18.14
2022-12-15T22:09:52.460Z,-18.07
2022-12-15T22:12:23.841Z,-17.99
2022-12-15T22:14:52.983Z,-17.95
2022-12-15T22:17:22.748Z,-17.95
2022-12-15T22:19:51.062Z,-17.97
2022-12-15T22:22:19.851Z,-17.95
2022-12-15T22:24:50.753Z,-18.02
2022-12-15T22:27:21.101Z,-18.22
2022-12-15T22:29:50.608Z,-18.46
2022-12-15T22:32:18.496Z,-18.43
2022-12-15T22:34:46.614Z,-18.46
2022-12-15T22:37:14.635Z,-18.42
2022-12-15T22:39:42.543Z,-18.36
2022-12-15T22:42:16.242Z,-18.38
2022-12-15T22:44:44.132Z,-18.38
2022-12-15T22:47:12.607Z,-18.40
2022-12-15T22:49:42.303Z,-18.51
2022-12-15T22:52:17.550Z,-18.46
2022-12-15T22:54:46.302Z,-18.44
2022-12-15T22:57:23.233Z,-18.44
2022-12-15T22:59:55.314Z,-18.40
2022-12-15T23:02:23.306Z,-18.36
2022-12-15T23:04:51.723Z,-18.37
2022-12-15T23:07:19.965Z,-18.36
2022-12-15T23:09:48.184Z,-18.37
2022-12-15T23:12:16.389Z,-18.41
2022-12-15T23:15:01.616Z,-18.44
2022-12-15T23:17:29.978Z,-18.46
2022-12-15T23:19:57.799Z,-18.51
2022-12-15T23:22:25.710Z,-18.53
2022-12-15T23:24:53.547Z,-18.45
2022-12-15T23:27:22.806Z,-18.42
2022-12-15T23:29:50.669Z,-18.40
2022-12-15T23:32:19.638Z,-18.41
2022-12-15T23:34:47.454Z,-18.58
2022-12-15T23:37:15.282Z,-18.67
2022-12-15T23:39:43.228Z,-18.68
2022-12-15T23:42:11.812Z,-18.69
2022-12-15T23:44:41.049Z,-18.71
2022-12-15T23:47:09.308Z,-18.75
2022-12-15T23:49:37.194Z,-18.74
2022-12-15T23:52:05.265Z,-18.75
2022-12-15T23:54:33.098Z,-18.67
2022-12-15T23:57:01.086Z,-18.75
2022-12-15T23:59:29.022Z,-18.82
